AAL73 TNCM-TNCC
Flight info
| Callsign | AAL73 |
|---|---|
| Flight time | 1h 18m |
| Altitude | 38000 |
| Route | PJM M576 MILOK UM576 ACORA ACORA1B |
| Aircraft | B738/M-SDE2E3FGHIRWXY/LB1 |
Departure
| Time | 2026-05-08 01:55 |
|---|---|
| Airport | Princess Juliana International Airport (TNCM) |
Arrival
| Time | 2026-05-08 03:13 |
|---|---|
| Airport | Hato International Airport (TNCC) |
| Time | Latitude | Longitude | Altitude | Speed | Heading |
|---|---|---|---|---|---|
| 2026-05-08 01:38 | 18.04330 | -63.11361 | 22 ft | 0 kts | 351° |
| 2026-05-08 01:47 | 18.04329 | -63.11361 | 22 ft | 0 kts | 351° |
| 2026-05-08 01:48 | 18.04328 | -63.11361 | 22 ft | 1 kts | 352° |
| 2026-05-08 01:48 | 18.04315 | -63.11359 | 22 ft | 2 kts | 354° |
| 2026-05-08 01:48 | 18.04301 | -63.11358 | 21 ft | 2 kts | 352° |
| 2026-05-08 01:49 | 18.04287 | -63.11356 | 21 ft | 2 kts | 353° |
| 2026-05-08 01:49 | 18.04274 | -63.11354 | 21 ft | 2 kts | 353° |
| 2026-05-08 01:49 | 18.04261 | -63.11352 | 20 ft | 2 kts | 353° |
| 2026-05-08 01:49 | 18.04247 | -63.11351 | 20 ft | 2 kts | 353° |
| 2026-05-08 01:50 | 18.04239 | -63.11350 | 20 ft | 1 kts | 353° |
| 2026-05-08 01:50 | 18.04238 | -63.11349 | 20 ft | 0 kts | 352° |
| 2026-05-08 01:51 | 18.04240 | -63.11352 | 20 ft | 1 kts | 316° |
| 2026-05-08 01:52 | 18.04236 | -63.11391 | 21 ft | 11 kts | 257° |
| 2026-05-08 01:52 | 18.04202 | -63.11497 | 22 ft | 21 kts | 237° |
| 2026-05-08 01:52 | 18.04111 | -63.11619 | 24 ft | 24 kts | 236° |
| 2026-05-08 01:52 | 18.04056 | -63.11755 | 25 ft | 22 kts | 257° |
| 2026-05-08 01:53 | 18.04040 | -63.11865 | 25 ft | 14 kts | 263° |
| 2026-05-08 01:53 | 18.04015 | -63.11920 | 25 ft | 9 kts | 238° |
| 2026-05-08 01:53 | 18.03953 | -63.11950 | 25 ft | 12 kts | 133° |
| 2026-05-08 01:53 | 18.03947 | -63.11919 | 25 ft | 1 kts | 83° |
| 2026-05-08 01:54 | 18.03948 | -63.11917 | 25 ft | 0 kts | 81° |
| 2026-05-08 01:54 | 18.03949 | -63.11910 | 25 ft | 10 kts | 81° |
| 2026-05-08 01:54 | 18.04008 | -63.11568 | 23 ft | 100 kts | 82° |
| 2026-05-08 01:54 | 18.04134 | -63.10636 | 29 ft | 181 kts | 81° |
| 2026-05-08 01:55 | 18.04290 | -63.09437 | 1066 ft | 189 kts | 83° |
| 2026-05-08 01:55 | 18.04343 | -63.08270 | 2111 ft | 191 kts | 96° |
| 2026-05-08 01:55 | 18.03798 | -63.07088 | 2726 ft | 215 kts | 133° |
| 2026-05-08 01:55 | 18.02545 | -63.06421 | 3465 ft | 237 kts | 168° |
| 2026-05-08 01:56 | 18.01026 | -63.06596 | 4144 ft | 258 kts | 201° |
| 2026-05-08 01:56 | 17.99683 | -63.07672 | 4854 ft | 275 kts | 233° |
| 2026-05-08 01:56 | 17.98748 | -63.09451 | 5716 ft | 286 kts | 246° |
| 2026-05-08 01:56 | 17.97836 | -63.11309 | 6672 ft | 294 kts | 240° |
| 2026-05-08 01:57 | 17.96702 | -63.13078 | 7794 ft | 295 kts | 233° |
| 2026-05-08 01:57 | 17.95405 | -63.14752 | 8782 ft | 301 kts | 230° |
| 2026-05-08 01:57 | 17.94016 | -63.16383 | 9807 ft | 304 kts | 229° |
| 2026-05-08 01:57 | 17.92581 | -63.18019 | 10732 ft | 311 kts | 229° |
| 2026-05-08 01:58 | 17.91080 | -63.19728 | 11395 ft | 327 kts | 229° |
| 2026-05-08 01:58 | 17.89507 | -63.21529 | 12061 ft | 342 kts | 229° |
| 2026-05-08 01:58 | 17.87874 | -63.23406 | 12670 ft | 357 kts | 230° |
| 2026-05-08 01:58 | 17.86164 | -63.25376 | 13263 ft | 371 kts | 230° |
| 2026-05-08 01:59 | 17.84390 | -63.27425 | 13771 ft | 387 kts | 230° |
| 2026-05-08 01:59 | 17.82560 | -63.29536 | 14499 ft | 394 kts | 230° |
| 2026-05-08 01:59 | 17.80704 | -63.31673 | 15267 ft | 400 kts | 230° |
| 2026-05-08 01:59 | 17.78812 | -63.33851 | 16038 ft | 405 kts | 229° |
| 2026-05-08 02:00 | 17.76933 | -63.36012 | 16744 ft | 411 kts | 229° |
| 2026-05-08 02:00 | 17.75064 | -63.38163 | 17449 ft | 416 kts | 229° |
| 2026-05-08 02:00 | 17.73191 | -63.40318 | 18104 ft | 422 kts | 229° |
| 2026-05-08 02:00 | 17.71280 | -63.42515 | 18730 ft | 427 kts | 229° |
| 2026-05-08 02:01 | 17.69299 | -63.44794 | 19335 ft | 434 kts | 229° |
| 2026-05-08 02:01 | 17.67301 | -63.47089 | 19947 ft | 440 kts | 229° |
| 2026-05-08 02:01 | 17.65267 | -63.49427 | 20574 ft | 445 kts | 229° |
| 2026-05-08 02:01 | 17.63228 | -63.51768 | 21163 ft | 450 kts | 228° |
| 2026-05-08 02:02 | 17.61124 | -63.54184 | 21701 ft | 457 kts | 228° |
| 2026-05-08 02:02 | 17.58992 | -63.56632 | 22279 ft | 463 kts | 228° |
| 2026-05-08 02:02 | 17.56827 | -63.59115 | 22860 ft | 468 kts | 228° |
| 2026-05-08 02:02 | 17.54650 | -63.61612 | 23510 ft | 471 kts | 229° |
| 2026-05-08 02:03 | 17.52449 | -63.64135 | 24187 ft | 474 kts | 229° |
| 2026-05-08 02:03 | 17.50262 | -63.66640 | 24742 ft | 478 kts | 228° |
| 2026-05-08 02:03 | 17.47970 | -63.69158 | 25384 ft | 481 kts | 226° |
| 2026-05-08 02:03 | 17.45599 | -63.71621 | 25978 ft | 485 kts | 226° |
| 2026-05-08 02:04 | 17.43188 | -63.74051 | 26556 ft | 488 kts | 225° |
| 2026-05-08 02:04 | 17.40733 | -63.76494 | 27162 ft | 491 kts | 225° |
| 2026-05-08 02:04 | 17.38267 | -63.78943 | 27645 ft | 496 kts | 225° |
| 2026-05-08 02:04 | 17.35801 | -63.81398 | 28197 ft | 499 kts | 226° |
| 2026-05-08 02:05 | 17.33295 | -63.83904 | 28690 ft | 503 kts | 226° |
| 2026-05-08 02:05 | 17.30855 | -63.86356 | 29170 ft | 506 kts | 226° |
| 2026-05-08 02:05 | 17.28350 | -63.88881 | 29654 ft | 509 kts | 226° |
| 2026-05-08 02:05 | 17.25964 | -63.91293 | 30230 ft | 509 kts | 226° |
| 2026-05-08 02:06 | 17.23483 | -63.93805 | 30845 ft | 508 kts | 226° |
| 2026-05-08 02:06 | 17.21041 | -63.96280 | 31421 ft | 507 kts | 226° |
| 2026-05-08 02:06 | 17.18568 | -63.98786 | 31929 ft | 508 kts | 226° |
| 2026-05-08 02:06 | 17.16149 | -64.01238 | 32393 ft | 509 kts | 226° |
| 2026-05-08 02:07 | 17.13719 | -64.03701 | 32890 ft | 509 kts | 226° |
| 2026-05-08 02:07 | 17.11363 | -64.06088 | 33417 ft | 509 kts | 226° |
| 2026-05-08 02:07 | 17.08968 | -64.08512 | 33974 ft | 508 kts | 226° |
| 2026-05-08 02:07 | 17.06641 | -64.10865 | 34621 ft | 505 kts | 226° |
| 2026-05-08 02:08 | 17.04375 | -64.13155 | 35311 ft | 500 kts | 226° |
| 2026-05-08 02:08 | 17.02156 | -64.15397 | 36044 ft | 494 kts | 226° |
| 2026-05-08 02:08 | 16.99892 | -64.17682 | 36571 ft | 493 kts | 226° |
| 2026-05-08 02:08 | 16.97575 | -64.20023 | 37012 ft | 493 kts | 226° |
| 2026-05-08 02:09 | 16.95243 | -64.22378 | 37404 ft | 494 kts | 226° |
| 2026-05-08 02:09 | 16.92980 | -64.24663 | 37840 ft | 493 kts | 226° |
| 2026-05-08 02:09 | 16.90662 | -64.27003 | 38033 ft | 495 kts | 226° |
| 2026-05-08 02:09 | 16.88425 | -64.29260 | 38029 ft | 492 kts | 226° |
| 2026-05-08 02:10 | 16.84086 | -64.33634 | 38030 ft | 488 kts | 226° |
| 2026-05-08 02:10 | 16.79748 | -64.38006 | 38029 ft | 491 kts | 226° |
| 2026-05-08 02:11 | 16.75373 | -64.42411 | 38029 ft | 492 kts | 226° |
| 2026-05-08 02:11 | 16.71009 | -64.46801 | 38029 ft | 489 kts | 226° |
| 2026-05-08 02:12 | 16.66560 | -64.51275 | 38029 ft | 492 kts | 226° |
| 2026-05-08 02:12 | 16.62054 | -64.55802 | 38029 ft | 489 kts | 226° |
| 2026-05-08 02:13 | 16.57587 | -64.60288 | 38029 ft | 492 kts | 226° |
| 2026-05-08 02:13 | 16.53053 | -64.64838 | 38029 ft | 490 kts | 226° |
| 2026-05-08 02:14 | 16.48669 | -64.69232 | 38029 ft | 490 kts | 226° |
| 2026-05-08 02:14 | 16.44265 | -64.73646 | 38030 ft | 491 kts | 226° |
| 2026-05-08 02:15 | 16.39869 | -64.78048 | 38031 ft | 490 kts | 226° |
| 2026-05-08 02:15 | 16.35509 | -64.82411 | 38034 ft | 490 kts | 226° |
| 2026-05-08 02:16 | 16.31107 | -64.86813 | 38036 ft | 490 kts | 226° |
| 2026-05-08 02:16 | 16.26636 | -64.91281 | 38035 ft | 490 kts | 226° |
| 2026-05-08 02:17 | 16.22102 | -64.95807 | 38032 ft | 490 kts | 226° |
| 2026-05-08 02:17 | 16.17565 | -65.00334 | 38027 ft | 492 kts | 226° |
| 2026-05-08 02:18 | 16.13045 | -65.04839 | 38017 ft | 491 kts | 226° |
| 2026-05-08 02:18 | 16.08522 | -65.09344 | 38016 ft | 491 kts | 226° |
| 2026-05-08 02:19 | 16.04015 | -65.13832 | 38024 ft | 491 kts | 226° |
| 2026-05-08 02:19 | 15.99492 | -65.18330 | 38029 ft | 490 kts | 226° |
| 2026-05-08 02:20 | 15.94934 | -65.22862 | 38030 ft | 490 kts | 226° |
| 2026-05-08 02:20 | 15.90379 | -65.27386 | 38026 ft | 489 kts | 226° |
| 2026-05-08 02:21 | 15.85967 | -65.31767 | 38025 ft | 489 kts | 226° |
| 2026-05-08 02:21 | 15.81554 | -65.36147 | 38026 ft | 490 kts | 226° |
| 2026-05-08 02:22 | 15.77117 | -65.40547 | 38027 ft | 491 kts | 226° |
| 2026-05-08 02:22 | 15.72702 | -65.44924 | 38026 ft | 491 kts | 226° |
| 2026-05-08 02:23 | 15.68254 | -65.49329 | 38022 ft | 489 kts | 226° |
| 2026-05-08 02:23 | 15.63717 | -65.53832 | 38023 ft | 490 kts | 226° |
| 2026-05-08 02:24 | 15.59163 | -65.58360 | 38020 ft | 490 kts | 226° |
| 2026-05-08 02:24 | 15.54635 | -65.62859 | 38020 ft | 489 kts | 226° |
| 2026-05-08 02:25 | 15.50174 | -65.67288 | 38018 ft | 488 kts | 226° |
| 2026-05-08 02:25 | 15.45805 | -65.71623 | 38019 ft | 488 kts | 226° |
| 2026-05-08 02:26 | 15.41431 | -65.75961 | 38019 ft | 487 kts | 226° |
| 2026-05-08 02:26 | 15.37055 | -65.80297 | 38018 ft | 488 kts | 226° |
| 2026-05-08 02:27 | 15.32655 | -65.84655 | 38019 ft | 489 kts | 226° |
| 2026-05-08 02:27 | 15.28113 | -65.89146 | 38016 ft | 488 kts | 226° |
| 2026-05-08 02:28 | 15.23542 | -65.93611 | 38017 ft | 490 kts | 226° |
| 2026-05-08 02:28 | 15.18964 | -65.98045 | 38018 ft | 487 kts | 225° |
| 2026-05-08 02:29 | 15.14413 | -66.02448 | 38025 ft | 488 kts | 225° |
| 2026-05-08 02:29 | 15.09782 | -66.06929 | 38025 ft | 486 kts | 225° |
| 2026-05-08 02:30 | 15.05161 | -66.11403 | 38025 ft | 489 kts | 225° |
| 2026-05-08 02:30 | 15.00492 | -66.15856 | 38017 ft | 488 kts | 224° |
| 2026-05-08 02:31 | 14.95855 | -66.20192 | 38011 ft | 488 kts | 224° |
| 2026-05-08 02:31 | 14.91193 | -66.24531 | 38004 ft | 488 kts | 224° |
| 2026-05-08 02:32 | 14.86615 | -66.28795 | 38004 ft | 485 kts | 224° |
| 2026-05-08 02:32 | 14.82103 | -66.33003 | 38005 ft | 487 kts | 225° |
| 2026-05-08 02:33 | 14.77209 | -66.37571 | 38002 ft | 488 kts | 225° |
| 2026-05-08 02:33 | 14.72364 | -66.42095 | 38001 ft | 487 kts | 225° |
| 2026-05-08 02:34 | 14.67800 | -66.46356 | 38001 ft | 488 kts | 225° |
| 2026-05-08 02:34 | 14.62949 | -66.50882 | 37999 ft | 488 kts | 225° |
| 2026-05-08 02:35 | 14.57938 | -66.55554 | 38004 ft | 488 kts | 225° |
| 2026-05-08 02:35 | 14.53060 | -66.60098 | 38002 ft | 487 kts | 225° |
| 2026-05-08 02:36 | 14.48371 | -66.64464 | 38001 ft | 488 kts | 225° |
| 2026-05-08 02:36 | 14.43841 | -66.68719 | 37999 ft | 488 kts | 226° |
| 2026-05-08 02:37 | 14.39514 | -66.73122 | 37997 ft | 487 kts | 228° |
| 2026-05-08 02:37 | 14.35260 | -66.77626 | 37995 ft | 486 kts | 229° |
| 2026-05-08 02:38 | 14.31021 | -66.82125 | 38000 ft | 487 kts | 229° |
| 2026-05-08 02:38 | 14.26701 | -66.86681 | 37997 ft | 489 kts | 229° |
| 2026-05-08 02:39 | 14.22255 | -66.91338 | 37993 ft | 487 kts | 228° |
| 2026-05-08 02:39 | 14.17863 | -66.95916 | 37992 ft | 488 kts | 228° |
| 2026-05-08 02:40 | 14.13321 | -67.00641 | 37992 ft | 488 kts | 228° |
| 2026-05-08 02:40 | 14.08894 | -67.05238 | 37999 ft | 488 kts | 228° |
| 2026-05-08 02:41 | 14.04454 | -67.09845 | 38007 ft | 487 kts | 228° |
| 2026-05-08 02:41 | 14.00010 | -67.14454 | 38010 ft | 488 kts | 228° |
| 2026-05-08 02:42 | 13.95575 | -67.19052 | 38002 ft | 489 kts | 228° |
| 2026-05-08 02:42 | 13.91145 | -67.23642 | 38001 ft | 487 kts | 228° |
| 2026-05-08 02:43 | 13.86811 | -67.28129 | 38000 ft | 488 kts | 228° |
| 2026-05-08 02:43 | 13.82518 | -67.32573 | 38000 ft | 487 kts | 229° |
| 2026-05-08 02:44 | 13.78226 | -67.37012 | 37997 ft | 485 kts | 229° |
| 2026-05-08 02:44 | 13.73915 | -67.41469 | 37991 ft | 488 kts | 229° |
| 2026-05-08 02:45 | 13.69561 | -67.45968 | 37997 ft | 488 kts | 229° |
| 2026-05-08 02:45 | 13.65400 | -67.50664 | 37993 ft | 484 kts | 235° |
| 2026-05-08 02:46 | 13.61783 | -67.55687 | 37994 ft | 483 kts | 239° |
| 2026-05-08 02:46 | 13.58378 | -67.60865 | 37991 ft | 481 kts | 240° |
| 2026-05-08 02:47 | 13.55027 | -67.66071 | 37989 ft | 484 kts | 240° |
| 2026-05-08 02:47 | 13.51670 | -67.71270 | 37982 ft | 482 kts | 240° |
| 2026-05-08 02:48 | 13.48296 | -67.76461 | 37984 ft | 484 kts | 240° |
| 2026-05-08 02:48 | 13.44915 | -67.81631 | 37969 ft | 480 kts | 240° |
| 2026-05-08 02:49 | 13.43239 | -67.84181 | 37832 ft | 473 kts | 240° |
| 2026-05-08 02:49 | 13.41583 | -67.86698 | 37300 ft | 471 kts | 240° |
| 2026-05-08 02:49 | 13.39892 | -67.89268 | 36676 ft | 469 kts | 240° |
| 2026-05-08 02:49 | 13.38101 | -67.91991 | 35847 ft | 470 kts | 240° |
| 2026-05-08 02:50 | 13.36329 | -67.94684 | 35087 ft | 471 kts | 240° |
| 2026-05-08 02:50 | 13.34546 | -67.97394 | 34336 ft | 470 kts | 240° |
| 2026-05-08 02:50 | 13.32784 | -68.00068 | 33566 ft | 470 kts | 240° |
| 2026-05-08 02:50 | 13.31011 | -68.02760 | 32800 ft | 470 kts | 239° |
| 2026-05-08 02:51 | 13.29220 | -68.05476 | 32045 ft | 470 kts | 239° |
| 2026-05-08 02:51 | 13.27432 | -68.08190 | 31260 ft | 471 kts | 239° |
| 2026-05-08 02:51 | 13.25616 | -68.10946 | 30417 ft | 474 kts | 239° |
| 2026-05-08 02:51 | 13.23798 | -68.13704 | 29535 ft | 476 kts | 239° |
| 2026-05-08 02:52 | 13.21944 | -68.16514 | 28602 ft | 479 kts | 239° |
| 2026-05-08 02:52 | 13.20076 | -68.19346 | 27650 ft | 483 kts | 239° |
| 2026-05-08 02:52 | 13.18198 | -68.22192 | 26642 ft | 487 kts | 238° |
| 2026-05-08 02:52 | 13.16302 | -68.25064 | 25575 ft | 491 kts | 238° |
| 2026-05-08 02:53 | 13.14392 | -68.27955 | 24464 ft | 495 kts | 237° |
| 2026-05-08 02:53 | 13.12467 | -68.30867 | 23653 ft | 491 kts | 237° |
| 2026-05-08 02:53 | 13.10571 | -68.33732 | 23024 ft | 483 kts | 237° |
| 2026-05-08 02:53 | 13.08706 | -68.36550 | 22363 ft | 476 kts | 236° |
| 2026-05-08 02:54 | 13.06863 | -68.39334 | 21704 ft | 470 kts | 236° |
| 2026-05-08 02:54 | 13.05038 | -68.42089 | 21023 ft | 465 kts | 236° |
| 2026-05-08 02:54 | 13.03234 | -68.44811 | 20337 ft | 461 kts | 236° |
| 2026-05-08 02:54 | 13.01447 | -68.47506 | 19646 ft | 456 kts | 236° |
| 2026-05-08 02:55 | 12.99681 | -68.50170 | 18958 ft | 451 kts | 236° |
| 2026-05-08 02:55 | 12.96200 | -68.55425 | 17597 ft | 441 kts | 237° |
| 2026-05-08 02:55 | 12.94487 | -68.58010 | 16908 ft | 436 kts | 237° |
| 2026-05-08 02:56 | 12.92793 | -68.60569 | 16222 ft | 431 kts | 236° |
| 2026-05-08 02:56 | 12.91126 | -68.63083 | 15547 ft | 426 kts | 236° |
| 2026-05-08 02:56 | 12.89476 | -68.65572 | 14871 ft | 421 kts | 236° |
| 2026-05-08 02:56 | 12.87841 | -68.68036 | 14200 ft | 416 kts | 236° |
| 2026-05-08 02:57 | 12.86225 | -68.70471 | 13522 ft | 411 kts | 236° |
| 2026-05-08 02:57 | 12.84626 | -68.72880 | 12855 ft | 406 kts | 236° |
| 2026-05-08 02:57 | 12.83049 | -68.75255 | 12182 ft | 402 kts | 236° |
| 2026-05-08 02:57 | 12.81488 | -68.77607 | 11555 ft | 396 kts | 235° |
| 2026-05-08 02:58 | 12.79962 | -68.79905 | 11143 ft | 384 kts | 235° |
| 2026-05-08 02:58 | 12.78492 | -68.82119 | 10947 ft | 367 kts | 235° |
| 2026-05-08 02:58 | 12.77123 | -68.84180 | 10852 ft | 350 kts | 235° |
| 2026-05-08 02:58 | 12.75799 | -68.86176 | 10698 ft | 336 kts | 235° |
| 2026-05-08 02:59 | 12.74510 | -68.88117 | 10502 ft | 324 kts | 234° |
| 2026-05-08 02:59 | 12.73263 | -68.89993 | 10336 ft | 313 kts | 234° |
| 2026-05-08 02:59 | 12.72065 | -68.91796 | 10183 ft | 302 kts | 234° |
| 2026-05-08 02:59 | 12.70900 | -68.93549 | 9981 ft | 295 kts | 234° |
| 2026-05-08 03:00 | 12.69740 | -68.95289 | 9953 ft | 298 kts | 234° |
| 2026-05-08 03:00 | 12.68569 | -68.97044 | 9948 ft | 299 kts | 234° |
| 2026-05-08 03:00 | 12.67400 | -68.98799 | 9945 ft | 298 kts | 234° |
| 2026-05-08 03:00 | 12.66234 | -69.00548 | 9948 ft | 299 kts | 234° |
| 2026-05-08 03:01 | 12.65065 | -69.02301 | 9944 ft | 298 kts | 234° |
| 2026-05-08 03:01 | 12.63899 | -69.04052 | 9946 ft | 297 kts | 234° |
| 2026-05-08 03:01 | 12.62729 | -69.05806 | 9944 ft | 299 kts | 234° |
| 2026-05-08 03:01 | 12.61557 | -69.07562 | 9948 ft | 299 kts | 234° |
| 2026-05-08 03:02 | 12.60388 | -69.09317 | 9945 ft | 299 kts | 234° |
| 2026-05-08 03:02 | 12.59220 | -69.11067 | 9819 ft | 294 kts | 234° |
| 2026-05-08 03:02 | 12.58070 | -69.12791 | 9443 ft | 293 kts | 234° |
| 2026-05-08 03:02 | 12.56913 | -69.14502 | 9061 ft | 292 kts | 231° |
| 2026-05-08 03:03 | 12.55563 | -69.16021 | 8685 ft | 287 kts | 215° |
| 2026-05-08 03:03 | 12.53800 | -69.16864 | 8337 ft | 275 kts | 186° |
| 2026-05-08 03:03 | 12.51926 | -69.16896 | 8003 ft | 267 kts | 172° |
| 2026-05-08 03:03 | 12.50089 | -69.16727 | 7649 ft | 265 kts | 171° |
| 2026-05-08 03:04 | 12.48243 | -69.16568 | 7298 ft | 264 kts | 173° |
| 2026-05-08 03:04 | 12.46417 | -69.16443 | 6954 ft | 262 kts | 173° |
| 2026-05-08 03:04 | 12.44598 | -69.16336 | 6610 ft | 260 kts | 174° |
| 2026-05-08 03:04 | 12.42794 | -69.16237 | 6271 ft | 258 kts | 173° |
| 2026-05-08 03:05 | 12.40999 | -69.16136 | 5933 ft | 256 kts | 173° |
| 2026-05-08 03:05 | 12.39208 | -69.16034 | 5601 ft | 254 kts | 173° |
| 2026-05-08 03:05 | 12.37452 | -69.15933 | 5277 ft | 252 kts | 172° |
| 2026-05-08 03:05 | 12.35862 | -69.15843 | 5065 ft | 247 kts | 172° |
| 2026-05-08 03:06 | 12.34361 | -69.15758 | 4935 ft | 239 kts | 172° |
| 2026-05-08 03:06 | 12.32902 | -69.15675 | 4805 ft | 232 kts | 172° |
| 2026-05-08 03:06 | 12.31484 | -69.15593 | 4625 ft | 228 kts | 171° |
| 2026-05-08 03:06 | 12.29978 | -69.15504 | 4346 ft | 229 kts | 171° |
| 2026-05-08 03:07 | 12.28379 | -69.15409 | 4030 ft | 230 kts | 170° |
| 2026-05-08 03:07 | 12.26775 | -69.15317 | 3747 ft | 230 kts | 170° |
| 2026-05-08 03:07 | 12.25239 | -69.15218 | 3510 ft | 226 kts | 167° |
| 2026-05-08 03:07 | 12.23786 | -69.14885 | 3290 ft | 214 kts | 148° |
| 2026-05-08 03:08 | 12.22791 | -69.13983 | 3117 ft | 195 kts | 114° |
| 2026-05-08 03:08 | 12.22421 | -69.12822 | 2997 ft | 190 kts | 98° |
| 2026-05-08 03:08 | 12.22211 | -69.11622 | 2848 ft | 193 kts | 100° |
| 2026-05-08 03:08 | 12.21953 | -69.10417 | 2699 ft | 192 kts | 101° |
| 2026-05-08 03:09 | 12.21695 | -69.09197 | 2414 ft | 194 kts | 100° |
| 2026-05-08 03:09 | 12.21454 | -69.08018 | 2190 ft | 180 kts | 100° |
| 2026-05-08 03:09 | 12.21226 | -69.06944 | 1990 ft | 165 kts | 99° |
| 2026-05-08 03:09 | 12.21019 | -69.05979 | 1797 ft | 149 kts | 99° |
| 2026-05-08 03:10 | 12.20840 | -69.05129 | 1669 ft | 131 kts | 100° |
| 2026-05-08 03:10 | 12.20664 | -69.04334 | 1450 ft | 120 kts | 100° |
| 2026-05-08 03:10 | 12.20507 | -69.03568 | 1337 ft | 118 kts | 99° |
| 2026-05-08 03:10 | 12.20339 | -69.02786 | 1203 ft | 119 kts | 100° |
| 2026-05-08 03:11 | 12.20173 | -69.02004 | 1052 ft | 122 kts | 98° |
| 2026-05-08 03:11 | 12.20013 | -69.01233 | 923 ft | 122 kts | 99° |
| 2026-05-08 03:11 | 12.19847 | -69.00453 | 763 ft | 126 kts | 100° |
| 2026-05-08 03:11 | 12.19681 | -68.99674 | 618 ft | 125 kts | 100° |
| 2026-05-08 03:12 | 12.19515 | -68.98883 | 476 ft | 126 kts | 100° |
| 2026-05-08 03:12 | 12.19342 | -68.98090 | 308 ft | 127 kts | 101° |
| 2026-05-08 03:12 | 12.19155 | -68.97271 | 249 ft | 135 kts | 101° |
| 2026-05-08 03:12 | 12.18986 | -68.96435 | 76 ft | 128 kts | 101° |
| 2026-05-08 03:13 | 12.18824 | -68.95672 | 46 ft | 114 kts | 101° |
| 2026-05-08 03:13 | 12.18719 | -68.95118 | 41 ft | 57 kts | 98° |
| 2026-05-08 03:13 | 12.18652 | -68.94796 | 40 ft | 38 kts | 107° |
| 2026-05-08 03:13 | 12.18602 | -68.94583 | 43 ft | 24 kts | 104° |
| 2026-05-08 03:14 | 12.18546 | -68.94482 | 46 ft | 13 kts | 152° |
| 2026-05-08 03:14 | 12.18465 | -68.94477 | 47 ft | 11 kts | 191° |
| 2026-05-08 03:14 | 12.18413 | -68.94514 | 48 ft | 9 kts | 248° |
| 2026-05-08 03:14 | 12.18413 | -68.94578 | 47 ft | 11 kts | 280° |
| 2026-05-08 03:15 | 12.18432 | -68.94653 | 45 ft | 13 kts | 285° |
| 2026-05-08 03:15 | 12.18453 | -68.94740 | 44 ft | 14 kts | 283° |
| 2026-05-08 03:15 | 12.18473 | -68.94832 | 44 ft | 15 kts | 281° |
| 2026-05-08 03:15 | 12.18491 | -68.94932 | 44 ft | 15 kts | 281° |
| 2026-05-08 03:16 | 12.18517 | -68.95040 | 44 ft | 16 kts | 284° |
| 2026-05-08 03:16 | 12.18536 | -68.95146 | 46 ft | 15 kts | 284° |
| 2026-05-08 03:16 | 12.18562 | -68.95248 | 46 ft | 15 kts | 283° |
| 2026-05-08 03:16 | 12.18581 | -68.95350 | 47 ft | 14 kts | 281° |
| 2026-05-08 03:17 | 12.18599 | -68.95450 | 48 ft | 14 kts | 281° |
| 2026-05-08 03:17 | 12.18618 | -68.95547 | 49 ft | 14 kts | 281° |
| 2026-05-08 03:17 | 12.18637 | -68.95650 | 48 ft | 15 kts | 281° |
| 2026-05-08 03:17 | 12.18657 | -68.95756 | 49 ft | 15 kts | 270° |
| 2026-05-08 03:18 | 12.18645 | -68.95782 | 50 ft | 0 kts | 216° |
| 2026-05-08 03:18 | 12.18618 | -68.95785 | 52 ft | 5 kts | 187° |
| 2026-05-08 03:18 | 12.18595 | -68.95789 | 52 ft | 1 kts | 189° |